sensor_id;sensor_type;location;lat;lon;timestamp;P1;durP1;ratioP1;P2;durP2;ratioP2
21591;SDS011;10958;50.892;3.992;2023-07-13T00:00:50;3.63;;;1.63;;
21591;SDS011;10958;50.892;3.992;2023-07-13T00:03:17;4.97;;;1.20;;
21591;SDS011;10958;50.892;3.992;2023-07-13T00:05:44;7.55;;;1.65;;
21591;SDS011;10958;50.892;3.992;2023-07-13T00:08:09;7.18;;;1.40;;
21591;SDS011;10958;50.892;3.992;2023-07-13T00:10:42;6.10;;;1.40;;
21591;SDS011;10958;50.892;3.992;2023-07-13T00:13:10;5.97;;;1.73;;
21591;SDS011;10958;50.892;3.992;2023-07-13T00:15:42;7.20;;;1.75;;
21591;SDS011;10958;50.892;3.992;2023-07-13T00:18:09;6.68;;;1.70;;
21591;SDS011;10958;50.892;3.992;2023-07-13T00:20:37;6.80;;;1.67;;
21591;SDS011;10958;50.892;3.992;2023-07-13T00:23:06;4.68;;;1.40;;
21591;SDS011;10958;50.892;3.992;2023-07-13T00:25:32;7.13;;;1.63;;
21591;SDS011;10958;50.892;3.992;2023-07-13T00:28:00;5.35;;;1.60;;
21591;SDS011;10958;50.892;3.992;2023-07-13T00:30:28;7.20;;;1.88;;
21591;SDS011;10958;50.892;3.992;2023-07-13T00:32:54;4.70;;;1.60;;
21591;SDS011;10958;50.892;3.992;2023-07-13T00:35:22;9.52;;;1.85;;
21591;SDS011;10958;50.892;3.992;2023-07-13T00:37:48;6.50;;;1.70;;
21591;SDS011;10958;50.892;3.992;2023-07-13T00:40:15;5.85;;;1.50;;
21591;SDS011;10958;50.892;3.992;2023-07-13T00:42:41;7.70;;;1.65;;
21591;SDS011;10958;50.892;3.992;2023-07-13T00:47:37;9.13;;;1.80;;
21591;SDS011;10958;50.892;3.992;2023-07-13T00:50:06;9.48;;;2.00;;
21591;SDS011;10958;50.892;3.992;2023-07-13T00:52:36;9.90;;;1.70;;
21591;SDS011;10958;50.892;3.992;2023-07-13T00:55:07;9.82;;;1.90;;
21591;SDS011;10958;50.892;3.992;2023-07-13T00:57:34;6.47;;;1.65;;
21591;SDS011;10958;50.892;3.992;2023-07-13T01:00:01;6.18;;;1.48;;
21591;SDS011;10958;50.892;3.992;2023-07-13T01:02:31;9.10;;;1.73;;
21591;SDS011;10958;50.892;3.992;2023-07-13T01:04:58;6.85;;;2.08;;
21591;SDS011;10958;50.892;3.992;2023-07-13T01:07:26;9.52;;;2.10;;
21591;SDS011;10958;50.892;3.992;2023-07-13T01:09:52;7.25;;;1.73;;
21591;SDS011;10958;50.892;3.992;2023-07-13T01:12:20;6.28;;;1.73;;
21591;SDS011;10958;50.892;3.992;2023-07-13T01:14:46;10.43;;;2.20;;
21591;SDS011;10958;50.892;3.992;2023-07-13T01:17:19;8.45;;;1.65;;
21591;SDS011;10958;50.892;3.992;2023-07-13T01:19:46;8.18;;;2.08;;
21591;SDS011;10958;50.892;3.992;2023-07-13T01:22:16;9.30;;;1.75;;
21591;SDS011;10958;50.892;3.992;2023-07-13T01:24:50;9.52;;;2.13;;
21591;SDS011;10958;50.892;3.992;2023-07-13T01:27:16;8.75;;;1.92;;
21591;SDS011;10958;50.892;3.992;2023-07-13T01:29:46;7.63;;;1.90;;
21591;SDS011;10958;50.892;3.992;2023-07-13T01:32:16;9.93;;;2.28;;
21591;SDS011;10958;50.892;3.992;2023-07-13T01:34:49;9.38;;;1.90;;
21591;SDS011;10958;50.892;3.992;2023-07-13T01:37:19;8.05;;;2.08;;
21591;SDS011;10958;50.892;3.992;2023-07-13T01:39:46;9.13;;;2.30;;
21591;SDS011;10958;50.892;3.992;2023-07-13T01:42:14;6.22;;;1.70;;
21591;SDS011;10958;50.892;3.992;2023-07-13T01:44:40;10.25;;;2.30;;
21591;SDS011;10958;50.892;3.992;2023-07-13T01:47:06;9.80;;;2.10;;
21591;SDS011;10958;50.892;3.992;2023-07-13T01:49:32;8.73;;;2.35;;
21591;SDS011;10958;50.892;3.992;2023-07-13T01:51:58;7.05;;;2.33;;
21591;SDS011;10958;50.892;3.992;2023-07-13T01:54:24;10.05;;;2.30;;
21591;SDS011;10958;50.892;3.992;2023-07-13T01:56:50;9.27;;;1.98;;
21591;SDS011;10958;50.892;3.992;2023-07-13T01:59:16;9.48;;;2.10;;
21591;SDS011;10958;50.892;3.992;2023-07-13T02:01:42;10.70;;;2.30;;
21591;SDS011;10958;50.892;3.992;2023-07-13T02:04:07;9.02;;;2.22;;
21591;SDS011;10958;50.892;3.992;2023-07-13T02:06:33;9.82;;;2.17;;
21591;SDS011;10958;50.892;3.992;2023-07-13T02:08:59;7.85;;;2.28;;
21591;SDS011;10958;50.892;3.992;2023-07-13T02:11:25;10.32;;;1.65;;
21591;SDS011;10958;50.892;3.992;2023-07-13T02:13:57;9.27;;;2.20;;
21591;SDS011;10958;50.892;3.992;2023-07-13T02:16:27;9.77;;;2.17;;
21591;SDS011;10958;50.892;3.992;2023-07-13T02:18:53;9.60;;;2.22;;
21591;SDS011;10958;50.892;3.992;2023-07-13T02:21:22;8.35;;;2.15;;
21591;SDS011;10958;50.892;3.992;2023-07-13T02:23:51;7.30;;;1.92;;
21591;SDS011;10958;50.892;3.992;2023-07-13T02:26:17;9.68;;;2.10;;
21591;SDS011;10958;50.892;3.992;2023-07-13T02:28:43;6.75;;;1.95;;
21591;SDS011;10958;50.892;3.992;2023-07-13T02:31:11;9.63;;;2.20;;
21591;SDS011;10958;50.892;3.992;2023-07-13T02:33:38;4.32;;;1.73;;
21591;SDS011;10958;50.892;3.992;2023-07-13T02:36:06;9.20;;;1.92;;
21591;SDS011;10958;50.892;3.992;2023-07-13T02:38:36;7.32;;;2.03;;
21591;SDS011;10958;50.892;3.992;2023-07-13T02:41:05;6.38;;;2.17;;
21591;SDS011;10958;50.892;3.992;2023-07-13T02:43:33;9.48;;;2.20;;
21591;SDS011;10958;50.892;3.992;2023-07-13T02:46:00;17.08;;;2.40;;
21591;SDS011;10958;50.892;3.992;2023-07-13T02:48:32;11.18;;;2.65;;
21591;SDS011;10958;50.892;3.992;2023-07-13T02:50:58;11.35;;;2.30;;
21591;SDS011;10958;50.892;3.992;2023-07-13T02:53:24;10.60;;;2.22;;
21591;SDS011;10958;50.892;3.992;2023-07-13T02:55:52;8.10;;;1.95;;
21591;SDS011;10958;50.892;3.992;2023-07-13T02:58:18;8.23;;;2.30;;
21591;SDS011;10958;50.892;3.992;2023-07-13T03:00:44;8.30;;;2.40;;
21591;SDS011;10958;50.892;3.992;2023-07-13T03:03:13;11.85;;;2.88;;
21591;SDS011;10958;50.892;3.992;2023-07-13T03:05:40;12.77;;;2.30;;
21591;SDS011;10958;50.892;3.992;2023-07-13T03:08:07;11.45;;;2.97;;
21591;SDS011;10958;50.892;3.992;2023-07-13T03:10:36;11.70;;;2.45;;
21591;SDS011;10958;50.892;3.992;2023-07-13T03:13:04;9.38;;;2.70;;
21591;SDS011;10958;50.892;3.992;2023-07-13T03:15:30;10.05;;;2.65;;
21591;SDS011;10958;50.892;3.992;2023-07-13T03:17:56;7.82;;;2.45;;
21591;SDS011;10958;50.892;3.992;2023-07-13T03:20:22;10.23;;;2.25;;
21591;SDS011;10958;50.892;3.992;2023-07-13T03:22:48;11.23;;;2.90;;
21591;SDS011;10958;50.892;3.992;2023-07-13T03:25:14;10.70;;;2.30;;
21591;SDS011;10958;50.892;3.992;2023-07-13T03:27:39;8.27;;;2.33;;
21591;SDS011;10958;50.892;3.992;2023-07-13T03:30:05;11.15;;;3.00;;
21591;SDS011;10958;50.892;3.992;2023-07-13T03:32:32;11.50;;;2.50;;
21591;SDS011;10958;50.892;3.992;2023-07-13T03:34:58;10.05;;;2.63;;
21591;SDS011;10958;50.892;3.992;2023-07-13T03:37:23;10.88;;;3.00;;
21591;SDS011;10958;50.892;3.992;2023-07-13T03:39:49;11.45;;;2.85;;
21591;SDS011;10958;50.892;3.992;2023-07-13T03:42:15;8.07;;;2.30;;
21591;SDS011;10958;50.892;3.992;2023-07-13T03:44:41;13.25;;;2.95;;
21591;SDS011;10958;50.892;3.992;2023-07-13T03:47:10;11.55;;;2.55;;
21591;SDS011;10958;50.892;3.992;2023-07-13T03:49:36;10.68;;;3.03;;
21591;SDS011;10958;50.892;3.992;2023-07-13T03:52:02;9.35;;;2.78;;
21591;SDS011;10958;50.892;3.992;2023-07-13T03:54:28;10.85;;;3.22;;
21591;SDS011;10958;50.892;3.992;2023-07-13T03:56:55;8.32;;;3.10;;
21591;SDS011;10958;50.892;3.992;2023-07-13T03:59:23;11.35;;;3.45;;
21591;SDS011;10958;50.892;3.992;2023-07-13T04:01:51;8.70;;;2.90;;
21591;SDS011;10958;50.892;3.992;2023-07-13T04:04:16;10.25;;;2.83;;
21591;SDS011;10958;50.892;3.992;2023-07-13T04:06:42;12.60;;;2.90;;
21591;SDS011;10958;50.892;3.992;2023-07-13T04:09:08;11.57;;;3.00;;
21591;SDS011;10958;50.892;3.992;2023-07-13T04:11:36;10.02;;;2.95;;
21591;SDS011;10958;50.892;3.992;2023-07-13T04:14:04;14.35;;;2.80;;
21591;SDS011;10958;50.892;3.992;2023-07-13T04:16:30;8.80;;;2.90;;
21591;SDS011;10958;50.892;3.992;2023-07-13T04:18:56;14.50;;;3.20;;
21591;SDS011;10958;50.892;3.992;2023-07-13T04:21:25;10.85;;;2.63;;
21591;SDS011;10958;50.892;3.992;2023-07-13T04:23:52;10.65;;;3.15;;
21591;SDS011;10958;50.892;3.992;2023-07-13T04:26:18;12.15;;;2.83;;
21591;SDS011;10958;50.892;3.992;2023-07-13T04:28:46;11.13;;;2.80;;
21591;SDS011;10958;50.892;3.992;2023-07-13T04:31:13;10.65;;;2.78;;
21591;SDS011;10958;50.892;3.992;2023-07-13T04:33:39;9.77;;;2.85;;
21591;SDS011;10958;50.892;3.992;2023-07-13T04:36:05;8.35;;;2.67;;
21591;SDS011;10958;50.892;3.992;2023-07-13T04:38:32;10.38;;;2.83;;
21591;SDS011;10958;50.892;3.992;2023-07-13T04:41:02;8.52;;;3.03;;
21591;SDS011;10958;50.892;3.992;2023-07-13T04:43:31;10.07;;;3.30;;
21591;SDS011;10958;50.892;3.992;2023-07-13T04:45:57;10.55;;;2.83;;
21591;SDS011;10958;50.892;3.992;2023-07-13T04:48:29;11.60;;;2.92;;
21591;SDS011;10958;50.892;3.992;2023-07-13T04:50:56;16.27;;;3.42;;
21591;SDS011;10958;50.892;3.992;2023-07-13T04:53:22;14.50;;;3.42;;
21591;SDS011;10958;50.892;3.992;2023-07-13T04:55:51;10.32;;;2.75;;
21591;SDS011;10958;50.892;3.992;2023-07-13T04:58:17;7.35;;;2.85;;
21591;SDS011;10958;50.892;3.992;2023-07-13T05:00:44;17.67;;;3.22;;
21591;SDS011;10958;50.892;3.992;2023-07-13T05:03:10;9.93;;;3.13;;
21591;SDS011;10958;50.892;3.992;2023-07-13T05:05:38;11.10;;;3.13;;
21591;SDS011;10958;50.892;3.992;2023-07-13T05:08:03;10.33;;;2.30;;
21591;SDS011;10958;50.892;3.992;2023-07-13T05:10:29;14.02;;;3.22;;
21591;SDS011;10958;50.892;3.992;2023-07-13T05:12:55;15.75;;;3.40;;
21591;SDS011;10958;50.892;3.992;2023-07-13T05:15:23;11.82;;;3.35;;
21591;SDS011;10958;50.892;3.992;2023-07-13T05:17:49;10.55;;;2.75;;
21591;SDS011;10958;50.892;3.992;2023-07-13T05:20:18;12.10;;;2.85;;
21591;SDS011;10958;50.892;3.992;2023-07-13T05:22:48;13.50;;;2.92;;
21591;SDS011;10958;50.892;3.992;2023-07-13T05:25:15;9.57;;;2.97;;
21591;SDS011;10958;50.892;3.992;2023-07-13T05:27:45;12.48;;;3.50;;
21591;SDS011;10958;50.892;3.992;2023-07-13T05:30:12;10.30;;;3.15;;
21591;SDS011;10958;50.892;3.992;2023-07-13T05:32:38;11.93;;;2.92;;
21591;SDS011;10958;50.892;3.992;2023-07-13T05:35:05;10.77;;;2.85;;
21591;SDS011;10958;50.892;3.992;2023-07-13T05:37:31;11.43;;;2.95;;
21591;SDS011;10958;50.892;3.992;2023-07-13T05:39:57;7.80;;;3.00;;
21591;SDS011;10958;50.892;3.992;2023-07-13T05:42:25;15.00;;;3.38;;
21591;SDS011;10958;50.892;3.992;2023-07-13T05:44:54;9.88;;;2.60;;
21591;SDS011;10958;50.892;3.992;2023-07-13T05:47:20;12.35;;;2.92;;
21591;SDS011;10958;50.892;3.992;2023-07-13T05:49:51;14.27;;;3.17;;
21591;SDS011;10958;50.892;3.992;2023-07-13T05:52:17;10.68;;;2.80;;
21591;SDS011;10958;50.892;3.992;2023-07-13T05:54:43;15.15;;;3.38;;
21591;SDS011;10958;50.892;3.992;2023-07-13T05:57:11;12.35;;;3.25;;
21591;SDS011;10958;50.892;3.992;2023-07-13T05:59:37;16.27;;;3.30;;
21591;SDS011;10958;50.892;3.992;2023-07-13T06:02:05;12.43;;;3.20;;
21591;SDS011;10958;50.892;3.992;2023-07-13T06:04:36;9.68;;;3.25;;
21591;SDS011;10958;50.892;3.992;2023-07-13T06:07:06;12.38;;;3.10;;
21591;SDS011;10958;50.892;3.992;2023-07-13T06:09:32;12.50;;;2.97;;
21591;SDS011;10958;50.892;3.992;2023-07-13T06:11:58;13.00;;;3.05;;
21591;SDS011;10958;50.892;3.992;2023-07-13T06:14:23;22.60;;;3.85;;
21591;SDS011;10958;50.892;3.992;2023-07-13T06:16:57;12.50;;;3.10;;
21591;SDS011;10958;50.892;3.992;2023-07-13T06:19:22;12.32;;;3.28;;
21591;SDS011;10958;50.892;3.992;2023-07-13T06:21:49;15.13;;;3.38;;
21591;SDS011;10958;50.892;3.992;2023-07-13T06:24:14;14.82;;;2.97;;
21591;SDS011;10958;50.892;3.992;2023-07-13T06:26:42;10.10;;;2.85;;
21591;SDS011;10958;50.892;3.992;2023-07-13T06:29:08;11.82;;;3.10;;
21591;SDS011;10958;50.892;3.992;2023-07-13T06:31:34;10.85;;;3.80;;
21591;SDS011;10958;50.892;3.992;2023-07-13T06:34:00;14.38;;;3.38;;
21591;SDS011;10958;50.892;3.992;2023-07-13T06:36:25;16.08;;;3.10;;
21591;SDS011;10958;50.892;3.992;2023-07-13T06:38:54;15.00;;;3.33;;
21591;SDS011;10958;50.892;3.992;2023-07-13T06:41:19;10.27;;;3.20;;
21591;SDS011;10958;50.892;3.992;2023-07-13T06:43:47;16.30;;;3.05;;
21591;SDS011;10958;50.892;3.992;2023-07-13T06:46:13;15.85;;;3.92;;
21591;SDS011;10958;50.892;3.992;2023-07-13T06:48:39;12.18;;;2.97;;
21591;SDS011;10958;50.892;3.992;2023-07-13T06:51:04;12.38;;;3.17;;
21591;SDS011;10958;50.892;3.992;2023-07-13T06:53:32;10.95;;;2.70;;
21591;SDS011;10958;50.892;3.992;2023-07-13T06:55:58;11.50;;;3.13;;
21591;SDS011;10958;50.892;3.992;2023-07-13T06:58:23;11.70;;;3.50;;
21591;SDS011;10958;50.892;3.992;2023-07-13T07:00:52;15.68;;;3.00;;
21591;SDS011;10958;50.892;3.992;2023-07-13T07:03:18;18.45;;;3.28;;
21591;SDS011;10958;50.892;3.992;2023-07-13T07:05:44;11.73;;;2.70;;
21591;SDS011;10958;50.892;3.992;2023-07-13T07:08:09;16.52;;;2.97;;
21591;SDS011;10958;50.892;3.992;2023-07-13T07:10:38;13.25;;;3.00;;
21591;SDS011;10958;50.892;3.992;2023-07-13T07:13:06;11.82;;;2.90;;
21591;SDS011;10958;50.892;3.992;2023-07-13T07:15:34;8.80;;;2.85;;
21591;SDS011;10958;50.892;3.992;2023-07-13T07:18:00;16.08;;;2.92;;
21591;SDS011;10958;50.892;3.992;2023-07-13T07:20:26;9.23;;;2.53;;
21591;SDS011;10958;50.892;3.992;2023-07-13T07:22:52;12.20;;;2.60;;
21591;SDS011;10958;50.892;3.992;2023-07-13T07:25:18;12.35;;;2.40;;
21591;SDS011;10958;50.892;3.992;2023-07-13T07:27:45;12.20;;;2.65;;
21591;SDS011;10958;50.892;3.992;2023-07-13T07:30:14;9.32;;;2.65;;
21591;SDS011;10958;50.892;3.992;2023-07-13T07:35:06;10.18;;;1.92;;
21591;SDS011;10958;50.892;3.992;2023-07-13T07:37:33;9.75;;;1.90;;
21591;SDS011;10958;50.892;3.992;2023-07-13T07:39:59;8.23;;;2.10;;
21591;SDS011;10958;50.892;3.992;2023-07-13T07:42:27;7.97;;;2.20;;
21591;SDS011;10958;50.892;3.992;2023-07-13T07:44:55;7.25;;;2.03;;
21591;SDS011;10958;50.892;3.992;2023-07-13T07:47:25;7.10;;;2.20;;
21591;SDS011;10958;50.892;3.992;2023-07-13T07:49:51;7.95;;;2.17;;
21591;SDS011;10958;50.892;3.992;2023-07-13T07:52:17;11.43;;;2.42;;
21591;SDS011;10958;50.892;3.992;2023-07-13T07:54:43;9.40;;;2.22;;
21591;SDS011;10958;50.892;3.992;2023-07-13T07:57:09;8.55;;;2.30;;
21591;SDS011;10958;50.892;3.992;2023-07-13T07:59:36;7.68;;;2.63;;
21591;SDS011;10958;50.892;3.992;2023-07-13T08:02:02;9.15;;;2.30;;
21591;SDS011;10958;50.892;3.992;2023-07-13T08:06:59;9.98;;;2.60;;
21591;SDS011;10958;50.892;3.992;2023-07-13T08:09:27;10.88;;;2.60;;
21591;SDS011;10958;50.892;3.992;2023-07-13T08:11:54;12.48;;;2.83;;
21591;SDS011;10958;50.892;3.992;2023-07-13T08:14:20;12.80;;;2.30;;
21591;SDS011;10958;50.892;3.992;2023-07-13T08:16:46;9.90;;;2.58;;
21591;SDS011;10958;50.892;3.992;2023-07-13T08:19:11;12.02;;;2.30;;
21591;SDS011;10958;50.892;3.992;2023-07-13T08:21:40;8.90;;;2.08;;
21591;SDS011;10958;50.892;3.992;2023-07-13T08:24:13;9.43;;;2.13;;
21591;SDS011;10958;50.892;3.992;2023-07-13T08:26:39;8.27;;;2.33;;
21591;SDS011;10958;50.892;3.992;2023-07-13T08:29:08;11.57;;;2.35;;
21591;SDS011;10958;50.892;3.992;2023-07-13T08:31:36;7.53;;;2.20;;
21591;SDS011;10958;50.892;3.992;2023-07-13T08:34:01;16.23;;;6.90;;
21591;SDS011;10958;50.892;3.992;2023-07-13T08:36:30;10.25;;;2.00;;
21591;SDS011;10958;50.892;3.992;2023-07-13T08:38:58;6.97;;;2.00;;
21591;SDS011;10958;50.892;3.992;2023-07-13T08:41:24;10.25;;;2.10;;
21591;SDS011;10958;50.892;3.992;2023-07-13T08:43:51;6.93;;;2.42;;
21591;SDS011;10958;50.892;3.992;2023-07-13T08:46:24;6.63;;;2.42;;
21591;SDS011;10958;50.892;3.992;2023-07-13T08:49:11;8.50;;;2.20;;
21591;SDS011;10958;50.892;3.992;2023-07-13T08:54:26;7.88;;;2.08;;
21591;SDS011;10958;50.892;3.992;2023-07-13T08:57:00;8.73;;;1.77;;
21591;SDS011;10958;50.892;3.992;2023-07-13T08:59:37;6.97;;;1.90;;
21591;SDS011;10958;50.892;3.992;2023-07-13T09:04:52;8.65;;;2.17;;
21591;SDS011;10958;50.892;3.992;2023-07-13T09:07:46;7.05;;;1.65;;
21591;SDS011;10958;50.892;3.992;2023-07-13T09:10:24;10.35;;;2.25;;
21591;SDS011;10958;50.892;3.992;2023-07-13T09:13:01;8.68;;;1.98;;
21591;SDS011;10958;50.892;3.992;2023-07-13T09:15:39;11.35;;;1.90;;
21591;SDS011;10958;50.892;3.992;2023-07-13T09:20:42;6.70;;;1.73;;
21591;SDS011;10958;50.892;3.992;2023-07-13T09:23:12;8.85;;;1.98;;
21591;SDS011;10958;50.892;3.992;2023-07-13T09:25:42;7.25;;;1.50;;
21591;SDS011;10958;50.892;3.992;2023-07-13T09:28:15;7.38;;;1.95;;
21591;SDS011;10958;50.892;3.992;2023-07-13T09:33:21;9.05;;;1.95;;
21591;SDS011;10958;50.892;3.992;2023-07-13T09:38:17;8.30;;;2.08;;
21591;SDS011;10958;50.892;3.992;2023-07-13T09:40:47;7.40;;;1.77;;
21591;SDS011;10958;50.892;3.992;2023-07-13T09:43:21;6.25;;;1.85;;
21591;SDS011;10958;50.892;3.992;2023-07-13T09:45:47;7.35;;;1.80;;
21591;SDS011;10958;50.892;3.992;2023-07-13T09:48:14;4.22;;;1.58;;
21591;SDS011;10958;50.892;3.992;2023-07-13T09:50:41;5.22;;;1.70;;
21591;SDS011;10958;50.892;3.992;2023-07-13T09:53:13;6.55;;;1.60;;
21591;SDS011;10958;50.892;3.992;2023-07-13T09:55:41;5.75;;;1.95;;
21591;SDS011;10958;50.892;3.992;2023-07-13T09:58:18;6.32;;;1.70;;
21591;SDS011;10958;50.892;3.992;2023-07-13T10:03:37;3.95;;;1.45;;
21591;SDS011;10958;50.892;3.992;2023-07-13T10:06:11;6.25;;;1.50;;
21591;SDS011;10958;50.892;3.992;2023-07-13T10:08:37;5.25;;;1.45;;
21591;SDS011;10958;50.892;3.992;2023-07-13T10:11:12;7.10;;;1.70;;
21591;SDS011;10958;50.892;3.992;2023-07-13T10:13:51;5.50;;;1.52;;
21591;SDS011;10958;50.892;3.992;2023-07-13T10:16:18;4.30;;;1.50;;
21591;SDS011;10958;50.892;3.992;2023-07-13T10:18:48;10.82;;;1.40;;
21591;SDS011;10958;50.892;3.992;2023-07-13T10:21:17;5.93;;;1.65;;
21591;SDS011;10958;50.892;3.992;2023-07-13T10:23:54;4.55;;;1.65;;
21591;SDS011;10958;50.892;3.992;2023-07-13T10:26:29;3.75;;;1.33;;
21591;SDS011;10958;50.892;3.992;2023-07-13T10:28:59;6.80;;;1.52;;
21591;SDS011;10958;50.892;3.992;2023-07-13T10:31:30;5.53;;;1.52;;
21591;SDS011;10958;50.892;3.992;2023-07-13T10:33:59;4.38;;;1.50;;
21591;SDS011;10958;50.892;3.992;2023-07-13T10:36:37;5.68;;;1.55;;
21591;SDS011;10958;50.892;3.992;2023-07-13T10:39:25;5.97;;;1.70;;
21591;SDS011;10958;50.892;3.992;2023-07-13T10:42:00;3.95;;;1.27;;
21591;SDS011;10958;50.892;3.992;2023-07-13T10:44:34;6.68;;;1.45;;
21591;SDS011;10958;50.892;3.992;2023-07-13T10:49:41;4.35;;;1.10;;
21591;SDS011;10958;50.892;3.992;2023-07-13T10:52:35;4.10;;;1.42;;
21591;SDS011;10958;50.892;3.992;2023-07-13T11:03:28;4.88;;;1.50;;
21591;SDS011;10958;50.892;3.992;2023-07-13T11:21:31;3.47;;;1.80;;
21591;SDS011;10958;50.892;3.992;2023-07-13T11:31:40;5.85;;;1.52;;
21591;SDS011;10958;50.892;3.992;2023-07-13T11:34:12;4.43;;;1.55;;
21591;SDS011;10958;50.892;3.992;2023-07-13T11:36:42;4.45;;;1.33;;
21591;SDS011;10958;50.892;3.992;2023-07-13T11:39:27;4.40;;;1.48;;
21591;SDS011;10958;50.892;3.992;2023-07-13T11:42:00;3.05;;;1.27;;
21591;SDS011;10958;50.892;3.992;2023-07-13T11:44:29;8.85;;;2.30;;
21591;SDS011;10958;50.892;3.992;2023-07-13T11:46:59;4.47;;;1.42;;
21591;SDS011;10958;50.892;3.992;2023-07-13T11:49:45;1.67;;;1.02;;
21591;SDS011;10958;50.892;3.992;2023-07-13T11:52:14;3.33;;;1.30;;
21591;SDS011;10958;50.892;3.992;2023-07-13T11:54:47;2.47;;;1.20;;
21591;SDS011;10958;50.892;3.992;2023-07-13T11:59:56;3.07;;;1.30;;
21591;SDS011;10958;50.892;3.992;2023-07-13T12:05:01;2.40;;;1.25;;
21591;SDS011;10958;50.892;3.992;2023-07-13T12:07:29;2.03;;;1.23;;
21591;SDS011;10958;50.892;3.992;2023-07-13T12:10:04;2.28;;;1.60;;
21591;SDS011;10958;50.892;3.992;2023-07-13T12:12:40;2.80;;;1.30;;
21591;SDS011;10958;50.892;3.992;2023-07-13T12:15:18;3.30;;;1.40;;
21591;SDS011;10958;50.892;3.992;2023-07-13T12:17:45;4.97;;;1.38;;
21591;SDS011;10958;50.892;3.992;2023-07-13T12:20:17;3.95;;;1.40;;
21591;SDS011;10958;50.892;3.992;2023-07-13T12:22:53;5.63;;;1.50;;
21591;SDS011;10958;50.892;3.992;2023-07-13T12:25:19;3.67;;;1.75;;
21591;SDS011;10958;50.892;3.992;2023-07-13T12:27:47;4.10;;;1.50;;
21591;SDS011;10958;50.892;3.992;2023-07-13T12:30:27;7.30;;;1.73;;
21591;SDS011;10958;50.892;3.992;2023-07-13T12:35:38;2.28;;;1.27;;
21591;SDS011;10958;50.892;3.992;2023-07-13T12:38:11;7.32;;;1.73;;
21591;SDS011;10958;50.892;3.992;2023-07-13T12:40:37;2.28;;;1.13;;
21591;SDS011;10958;50.892;3.992;2023-07-13T12:43:05;3.25;;;1.83;;
21591;SDS011;10958;50.892;3.992;2023-07-13T12:45:36;4.70;;;1.52;;
21591;SDS011;10958;50.892;3.992;2023-07-13T12:48:05;2.67;;;1.40;;
21591;SDS011;10958;50.892;3.992;2023-07-13T12:50:46;4.85;;;1.60;;
21591;SDS011;10958;50.892;3.992;2023-07-13T12:53:14;5.60;;;1.67;;
21591;SDS011;10958;50.892;3.992;2023-07-13T12:55:53;2.33;;;1.25;;
21591;SDS011;10958;50.892;3.992;2023-07-13T12:58:30;3.67;;;1.60;;
21591;SDS011;10958;50.892;3.992;2023-07-13T13:01:01;2.65;;;1.10;;
21591;SDS011;10958;50.892;3.992;2023-07-13T13:06:34;2.38;;;1.13;;
21591;SDS011;10958;50.892;3.992;2023-07-13T13:09:01;3.83;;;1.33;;
21591;SDS011;10958;50.892;3.992;2023-07-13T13:11:29;3.67;;;1.30;;
21591;SDS011;10958;50.892;3.992;2023-07-13T13:13:56;3.95;;;1.60;;
21591;SDS011;10958;50.892;3.992;2023-07-13T13:16:35;5.05;;;1.70;;
21591;SDS011;10958;50.892;3.992;2023-07-13T13:19:18;6.20;;;1.52;;
21591;SDS011;10958;50.892;3.992;2023-07-13T13:21:47;4.38;;;1.77;;
21591;SDS011;10958;50.892;3.992;2023-07-13T13:24:16;5.82;;;1.50;;
21591;SDS011;10958;50.892;3.992;2023-07-13T13:26:45;4.25;;;1.60;;
21591;SDS011;10958;50.892;3.992;2023-07-13T13:29:30;3.72;;;1.52;;
21591;SDS011;10958;50.892;3.992;2023-07-13T13:31:56;5.03;;;1.38;;
21591;SDS011;10958;50.892;3.992;2023-07-13T13:34:23;4.25;;;1.30;;
21591;SDS011;10958;50.892;3.992;2023-07-13T13:36:50;5.40;;;1.60;;
21591;SDS011;10958;50.892;3.992;2023-07-13T13:39:24;6.03;;;1.60;;
21591;SDS011;10958;50.892;3.992;2023-07-13T13:41:55;3.92;;;1.50;;
21591;SDS011;10958;50.892;3.992;2023-07-13T13:44:22;4.55;;;1.27;;
21591;SDS011;10958;50.892;3.992;2023-07-13T13:46:50;2.63;;;1.45;;
21591;SDS011;10958;50.892;3.992;2023-07-13T13:49:18;3.67;;;1.53;;
21591;SDS011;10958;50.892;3.992;2023-07-13T13:51:51;4.47;;;1.23;;
21591;SDS011;10958;50.892;3.992;2023-07-13T13:54:18;6.07;;;1.75;;
21591;SDS011;10958;50.892;3.992;2023-07-13T13:56:49;4.00;;;1.38;;
21591;SDS011;10958;50.892;3.992;2023-07-13T13:59:15;3.70;;;1.42;;
21591;SDS011;10958;50.892;3.992;2023-07-13T14:01:45;4.75;;;1.70;;
21591;SDS011;10958;50.892;3.992;2023-07-13T14:04:17;5.55;;;1.55;;
21591;SDS011;10958;50.892;3.992;2023-07-13T14:06:44;4.45;;;1.25;;
21591;SDS011;10958;50.892;3.992;2023-07-13T14:09:11;3.92;;;1.38;;
21591;SDS011;10958;50.892;3.992;2023-07-13T14:11:41;2.22;;;1.20;;
21591;SDS011;10958;50.892;3.992;2023-07-13T14:14:09;4.03;;;1.27;;
21591;SDS011;10958;50.892;3.992;2023-07-13T14:16:41;2.53;;;1.38;;
21591;SDS011;10958;50.892;3.992;2023-07-13T14:19:11;6.20;;;1.85;;
21591;SDS011;10958;50.892;3.992;2023-07-13T14:21:39;3.03;;;1.20;;
21591;SDS011;10958;50.892;3.992;2023-07-13T14:24:04;2.85;;;1.35;;
21591;SDS011;10958;50.892;3.992;2023-07-13T14:26:32;2.05;;;1.15;;
21591;SDS011;10958;50.892;3.992;2023-07-13T14:29:01;7.05;;;1.40;;
21591;SDS011;10958;50.892;3.992;2023-07-13T14:31:30;3.75;;;1.40;;
21591;SDS011;10958;50.892;3.992;2023-07-13T14:36:28;4.10;;;1.27;;
21591;SDS011;10958;50.892;3.992;2023-07-13T14:39:00;3.22;;;1.20;;
21591;SDS011;10958;50.892;3.992;2023-07-13T14:41:36;4.03;;;1.10;;
21591;SDS011;10958;50.892;3.992;2023-07-13T14:44:04;2.72;;;1.67;;
21591;SDS011;10958;50.892;3.992;2023-07-13T14:46:40;3.42;;;1.40;;
21591;SDS011;10958;50.892;3.992;2023-07-13T14:51:48;2.60;;;1.48;;
21591;SDS011;10958;50.892;3.992;2023-07-13T14:54:14;4.07;;;1.45;;
21591;SDS011;10958;50.892;3.992;2023-07-13T14:56:42;4.55;;;1.40;;
21591;SDS011;10958;50.892;3.992;2023-07-13T14:59:10;2.60;;;1.30;;
21591;SDS011;10958;50.892;3.992;2023-07-13T15:01:37;4.72;;;1.40;;
21591;SDS011;10958;50.892;3.992;2023-07-13T15:04:05;2.60;;;1.25;;
21591;SDS011;10958;50.892;3.992;2023-07-13T15:06:53;2.00;;;1.30;;
21591;SDS011;10958;50.892;3.992;2023-07-13T15:09:20;1.73;;;1.20;;
21591;SDS011;10958;50.892;3.992;2023-07-13T15:11:46;2.55;;;1.40;;
21591;SDS011;10958;50.892;3.992;2023-07-13T15:14:13;2.50;;;1.13;;
21591;SDS011;10958;50.892;3.992;2023-07-13T15:16:38;7.38;;;1.35;;
21591;SDS011;10958;50.892;3.992;2023-07-13T15:19:04;2.45;;;1.20;;
21591;SDS011;10958;50.892;3.992;2023-07-13T15:21:30;6.95;;;1.27;;
21591;SDS011;10958;50.892;3.992;2023-07-13T15:23:59;5.50;;;1.55;;
21591;SDS011;10958;50.892;3.992;2023-07-13T15:26:28;3.38;;;1.45;;
21591;SDS011;10958;50.892;3.992;2023-07-13T15:28:55;5.88;;;1.60;;
21591;SDS011;10958;50.892;3.992;2023-07-13T15:31:24;1.92;;;1.27;;
21591;SDS011;10958;50.892;3.992;2023-07-13T15:33:53;5.18;;;1.40;;
21591;SDS011;10958;50.892;3.992;2023-07-13T15:36:22;2.58;;;1.30;;
21591;SDS011;10958;50.892;3.992;2023-07-13T15:41:22;1.63;;;1.25;;
21591;SDS011;10958;50.892;3.992;2023-07-13T15:43:50;5.03;;;1.35;;
21591;SDS011;10958;50.892;3.992;2023-07-13T15:46:26;3.38;;;1.10;;
21591;SDS011;10958;50.892;3.992;2023-07-13T15:48:53;3.58;;;1.23;;
21591;SDS011;10958;50.892;3.992;2023-07-13T15:51:28;3.08;;;1.48;;
21591;SDS011;10958;50.892;3.992;2023-07-13T15:53:59;3.17;;;1.30;;
21591;SDS011;10958;50.892;3.992;2023-07-13T15:56:34;4.47;;;1.20;;
21591;SDS011;10958;50.892;3.992;2023-07-13T15:59:02;4.68;;;1.35;;
21591;SDS011;10958;50.892;3.992;2023-07-13T16:01:28;3.55;;;1.30;;
21591;SDS011;10958;50.892;3.992;2023-07-13T16:03:56;3.20;;;1.47;;
21591;SDS011;10958;50.892;3.992;2023-07-13T16:06:23;3.00;;;1.80;;
21591;SDS011;10958;50.892;3.992;2023-07-13T16:08:53;3.00;;;1.50;;